createdAt,value
2023-03-22T00:00:39.988Z,61.18
2023-03-22T00:01:39.675Z,62.06
2023-03-22T00:02:39.694Z,60.77
2023-03-22T00:03:39.659Z,61.51
2023-03-22T00:04:39.661Z,60.01
2023-03-22T00:05:39.602Z,61.34
2023-03-22T00:06:39.622Z,59.55
2023-03-22T00:07:39.592Z,60.57
2023-03-22T00:08:39.570Z,60.24
2023-03-22T00:09:39.612Z,60.88
2023-03-22T00:10:39.918Z,57.79
2023-03-22T00:11:39.547Z,58.27
2023-03-22T00:12:39.538Z,60.73
2023-03-22T00:13:39.529Z,62.67
2023-03-22T00:14:39.529Z,61.96
2023-03-22T00:15:39.589Z,60.95
2023-03-22T00:16:39.522Z,60.64
2023-03-22T00:17:39.483Z,61.49
2023-03-22T00:18:39.475Z,61.98
2023-03-22T00:19:39.488Z,60.31
2023-03-22T00:20:39.741Z,57.67
2023-03-22T00:21:39.450Z,59.75
2023-03-22T00:22:39.448Z,61.08
2023-03-22T00:23:39.431Z,60.97
2023-03-22T00:24:39.445Z,60.96
2023-03-22T00:25:39.407Z,62.19
2023-03-22T00:26:39.418Z,62.60
2023-03-22T00:27:39.407Z,59.55
2023-03-22T00:28:39.391Z,60.53
2023-03-22T00:29:39.421Z,60.68
2023-03-22T00:30:39.693Z,62.09
2023-03-22T00:31:39.419Z,61.01
2023-03-22T00:32:39.377Z,61.18
2023-03-22T00:33:39.352Z,59.32
2023-03-22T00:34:39.351Z,61.62
2023-03-22T00:35:39.372Z,60.82
2023-03-22T00:36:39.305Z,61.72
2023-03-22T00:37:39.311Z,62.54
2023-03-22T00:38:45.549Z,62.51
2023-03-22T00:39:41.310Z,60.23
2023-03-22T00:40:40.441Z,62.58
2023-03-22T00:41:39.262Z,59.02
2023-03-22T00:42:39.249Z,61.41
2023-03-22T00:43:39.245Z,61.49
2023-03-22T00:44:39.266Z,58.88
2023-03-22T00:45:39.219Z,59.20
2023-03-22T00:46:39.222Z,60.25
2023-03-22T00:47:39.202Z,61.93
2023-03-22T00:48:39.183Z,61.93
2023-03-22T00:49:39.202Z,62.60
2023-03-22T00:50:39.395Z,61.30
2023-03-22T00:51:39.147Z,60.04
2023-03-22T00:52:39.145Z,61.37
2023-03-22T00:53:42.424Z,61.89
2023-03-22T00:54:39.129Z,61.25
2023-03-22T00:55:39.138Z,58.44
2023-03-22T00:56:39.120Z,62.60
2023-03-22T00:57:39.128Z,61.95
2023-03-22T00:58:39.101Z,61.33
2023-03-22T00:59:39.082Z,61.67
2023-03-22T01:00:39.441Z,58.15
2023-03-22T01:01:39.063Z,61.06
2023-03-22T01:02:39.051Z,62.54
2023-03-22T01:03:39.068Z,60.18
2023-03-22T01:04:39.053Z,60.09
2023-03-22T01:05:39.061Z,59.68
2023-03-22T01:06:39.007Z,59.75
2023-03-22T01:07:39.007Z,61.53
2023-03-22T01:08:39.412Z,61.97
2023-03-22T01:09:38.985Z,61.69
2023-03-22T01:10:39.201Z,61.05
2023-03-22T01:11:38.948Z,58.24
2023-03-22T01:12:38.944Z,59.32
2023-03-22T01:13:38.940Z,61.02
2023-03-22T01:14:38.929Z,58.76
2023-03-22T01:15:38.960Z,57.92
2023-03-22T01:16:38.961Z,58.64
2023-03-22T01:17:38.901Z,61.21
2023-03-22T01:18:38.892Z,60.29
2023-03-22T01:19:38.882Z,59.55
2023-03-22T01:20:39.293Z,61.67
2023-03-22T01:21:38.871Z,58.45
2023-03-22T01:22:38.853Z,60.12
2023-03-22T01:23:38.849Z,58.13
2023-03-22T01:24:38.843Z,59.39
2023-03-22T01:25:38.844Z,61.80
2023-03-22T01:26:38.809Z,61.57
2023-03-22T01:27:38.806Z,60.02
2023-03-22T01:28:38.785Z,59.54
2023-03-22T01:29:38.786Z,61.45
2023-03-22T01:30:39.078Z,61.72
2023-03-22T01:31:38.768Z,61.73
2023-03-22T01:32:38.763Z,60.36
2023-03-22T01:33:38.778Z,59.50
2023-03-22T01:34:38.729Z,61.94
2023-03-22T01:35:38.769Z,62.64
2023-03-22T01:36:38.712Z,62.11
2023-03-22T01:37:38.706Z,63.14
2023-03-22T01:38:38.715Z,61.22
2023-03-22T01:39:38.724Z,62.38
2023-03-22T01:40:39.023Z,60.71
2023-03-22T01:41:38.672Z,64.66
2023-03-22T01:42:38.674Z,64.09
2023-03-22T01:43:38.658Z,60.79
2023-03-22T01:44:38.639Z,62.81
2023-03-22T01:45:38.680Z,61.62
2023-03-22T01:46:38.716Z,61.89
2023-03-22T01:47:38.610Z,59.54
2023-03-22T01:48:38.721Z,62.76
2023-03-22T01:49:38.593Z,61.68
2023-03-22T01:50:38.882Z,62.80
2023-03-22T01:51:38.574Z,60.25
2023-03-22T01:52:38.557Z,62.78
2023-03-22T01:53:38.556Z,60.82
2023-03-22T01:54:38.550Z,62.57
2023-03-22T01:55:38.560Z,63.79
2023-03-22T01:56:38.525Z,61.84
2023-03-22T01:57:38.517Z,61.83
2023-03-22T01:58:38.503Z,62.80
2023-03-22T01:59:38.500Z,63.32
2023-03-22T02:00:38.825Z,62.10
2023-03-22T02:01:38.497Z,63.18
2023-03-22T02:02:39.530Z,61.27
2023-03-22T02:03:38.452Z,61.14
2023-03-22T02:04:38.493Z,63.13
2023-03-22T02:05:38.469Z,62.78
2023-03-22T02:06:38.466Z,63.04
2023-03-22T02:07:38.420Z,60.82
2023-03-22T02:08:38.406Z,63.50
2023-03-22T02:09:38.397Z,61.34
2023-03-22T02:10:38.575Z,59.82
2023-03-22T02:11:38.374Z,62.22
2023-03-22T02:12:38.365Z,61.72
2023-03-22T02:13:38.364Z,62.06
2023-03-22T02:14:38.353Z,62.93
2023-03-22T02:15:39.428Z,62.68
2023-03-22T02:16:38.392Z,62.70
2023-03-22T02:17:38.326Z,61.49
2023-03-22T02:18:38.312Z,61.87
2023-03-22T02:19:38.303Z,61.40
2023-03-22T02:20:38.699Z,61.34
2023-03-22T02:21:38.275Z,63.88
2023-03-22T02:22:38.277Z,59.44
2023-03-22T02:23:38.260Z,61.25
2023-03-22T02:24:38.278Z,60.31
2023-03-22T02:25:38.295Z,61.49
2023-03-22T02:26:38.234Z,63.42
2023-03-22T02:27:38.242Z,62.76
2023-03-22T02:28:38.234Z,62.74
2023-03-22T02:29:38.207Z,61.73
2023-03-22T02:30:38.554Z,62.21
2023-03-22T02:31:38.255Z,60.36
2023-03-22T02:32:38.190Z,61.85
2023-03-22T02:33:40.449Z,62.21
2023-03-22T02:34:38.148Z,64.36
2023-03-22T02:35:38.184Z,63.06
2023-03-22T02:36:38.131Z,63.54
2023-03-22T02:37:38.138Z,61.58
2023-03-22T02:38:38.113Z,61.46
2023-03-22T02:39:38.105Z,63.93
2023-03-22T02:40:38.512Z,63.36
2023-03-22T02:41:38.094Z,61.90
2023-03-22T02:42:38.084Z,64.04
2023-03-22T02:43:38.078Z,63.83
2023-03-22T02:44:38.050Z,63.11
2023-03-22T02:45:38.071Z,63.07
2023-03-22T02:46:38.088Z,63.87
2023-03-22T02:47:38.027Z,63.69
2023-03-22T02:48:38.009Z,63.22
2023-03-22T02:49:38.013Z,65.73
2023-03-22T02:50:38.435Z,64.26
2023-03-22T02:51:38.010Z,61.83
2023-03-22T02:52:37.972Z,61.67
2023-03-22T02:53:37.958Z,64.77
2023-03-22T02:54:37.948Z,61.45
2023-03-22T02:55:37.949Z,63.91
2023-03-22T02:56:37.953Z,63.20
2023-03-22T02:57:37.930Z,63.87
2023-03-22T02:58:37.915Z,61.30
2023-03-22T02:59:37.905Z,61.72
2023-03-22T03:00:38.408Z,63.29
2023-03-22T03:01:37.987Z,63.94
2023-03-22T03:02:37.872Z,61.59
2023-03-22T03:03:37.870Z,62.70
2023-03-22T03:04:37.860Z,64.95
2023-03-22T03:05:37.848Z,63.21
2023-03-22T03:06:37.853Z,63.15
2023-03-22T03:07:37.830Z,60.63
2023-03-22T03:08:37.813Z,62.30
2023-03-22T03:09:37.807Z,64.72
2023-03-22T03:10:38.191Z,64.81
2023-03-22T03:11:37.811Z,63.15
2023-03-22T03:12:37.781Z,64.42
2023-03-22T03:13:37.809Z,64.43
2023-03-22T03:14:37.759Z,64.25
2023-03-22T03:15:37.754Z,65.82
2023-03-22T03:16:37.822Z,63.37
2023-03-22T03:17:37.729Z,63.51
2023-03-22T03:18:37.721Z,64.51
2023-03-22T03:19:37.710Z,64.74
2023-03-22T03:20:38.304Z,63.98
2023-03-22T03:21:37.690Z,65.01
2023-03-22T03:22:37.680Z,63.41
2023-03-22T03:23:37.670Z,63.45
2023-03-22T03:24:37.670Z,62.29
2023-03-22T03:25:37.702Z,64.29
2023-03-22T03:26:37.649Z,64.65
2023-03-22T03:27:37.638Z,62.76
2023-03-22T03:28:37.656Z,66.44
2023-03-22T03:29:37.619Z,62.54
2023-03-22T03:30:37.949Z,63.20
2023-03-22T03:31:37.659Z,63.75
2023-03-22T03:32:37.584Z,61.82
2023-03-22T03:33:37.587Z,64.01
2023-03-22T03:34:37.562Z,64.68
2023-03-22T03:35:37.636Z,64.17
2023-03-22T03:36:37.541Z,62.99
2023-03-22T03:37:37.546Z,64.53
2023-03-22T03:38:37.517Z,64.64
2023-03-22T03:39:37.514Z,62.53
2023-03-22T03:40:37.988Z,62.36
2023-03-22T03:41:37.495Z,63.36
2023-03-22T03:42:37.497Z,63.24
2023-03-22T03:43:37.497Z,63.36
2023-03-22T03:44:37.493Z,63.16
2023-03-22T03:45:37.535Z,61.65
2023-03-22T03:46:37.437Z,63.27
2023-03-22T03:47:37.432Z,61.63
2023-03-22T03:48:37.422Z,63.70
2023-03-22T03:49:37.416Z,62.05
2023-03-22T03:50:37.691Z,64.65
2023-03-22T03:51:37.396Z,63.09
2023-03-22T03:52:37.378Z,61.76
2023-03-22T03:53:37.370Z,64.15
2023-03-22T03:54:37.368Z,64.17
2023-03-22T03:55:37.371Z,64.20
2023-03-22T03:56:37.350Z,63.94
2023-03-22T03:57:37.335Z,62.16
2023-03-22T03:58:37.343Z,60.28
2023-03-22T03:59:37.332Z,62.07
2023-03-22T04:00:37.464Z,62.70
2023-03-22T04:01:37.301Z,62.85
2023-03-22T04:02:37.376Z,64.52
2023-03-22T04:03:37.296Z,63.94
2023-03-22T04:05:09.172Z,64.61
2023-03-22T04:05:37.263Z,64.36
2023-03-22T04:06:37.245Z,65.70
2023-03-22T04:07:37.266Z,66.73
2023-03-22T04:08:37.228Z,65.67
2023-03-22T04:09:37.247Z,64.64
2023-03-22T04:10:37.455Z,65.32
2023-03-22T04:11:37.201Z,65.23
2023-03-22T04:12:37.212Z,66.85
2023-03-22T04:13:37.179Z,67.46
2023-03-22T04:14:37.169Z,67.11
2023-03-22T04:15:37.157Z,67.03
2023-03-22T04:16:37.206Z,64.64
2023-03-22T04:17:37.167Z,65.50
2023-03-22T04:18:37.139Z,66.07
2023-03-22T04:19:37.123Z,66.08
2023-03-22T04:20:37.453Z,65.87
2023-03-22T04:21:37.098Z,66.38
2023-03-22T04:22:37.085Z,68.40
2023-03-22T04:23:37.084Z,66.27
2023-03-22T04:24:37.075Z,67.40
2023-03-22T04:25:37.085Z,66.99
2023-03-22T04:26:37.090Z,65.85
2023-03-22T04:27:37.037Z,67.44
2023-03-22T04:28:37.035Z,67.40
2023-03-22T04:29:37.009Z,68.50
2023-03-22T04:30:37.147Z,67.13
2023-03-22T04:31:36.992Z,66.30
2023-03-22T04:32:36.983Z,68.68
2023-03-22T04:33:36.974Z,66.52
2023-03-22T04:34:36.960Z,67.61
2023-03-22T04:35:36.988Z,66.98
2023-03-22T04:36:36.955Z,67.87
2023-03-22T04:37:36.947Z,67.98
2023-03-22T04:38:36.931Z,67.39
2023-03-22T04:39:36.907Z,66.89
2023-03-22T04:40:38.527Z,68.24
2023-03-22T04:41:36.921Z,67.41
2023-03-22T04:42:36.882Z,67.52
2023-03-22T04:43:36.882Z,68.12
2023-03-22T04:44:36.870Z,68.54
2023-03-22T04:45:36.841Z,66.58
2023-03-22T04:46:37.892Z,67.62
2023-03-22T04:47:36.827Z,69.00
2023-03-22T04:48:36.834Z,68.43
2023-03-22T04:49:36.816Z,67.05
2023-03-22T04:50:36.943Z,67.95
2023-03-22T04:51:36.835Z,68.15
2023-03-22T04:52:36.784Z,68.48
2023-03-22T04:53:36.772Z,66.32
2023-03-22T04:54:36.757Z,66.32
2023-03-22T04:55:36.755Z,66.19
2023-03-22T04:56:36.789Z,66.47
2023-03-22T04:57:37.715Z,66.70
2023-03-22T04:58:36.745Z,66.11
2023-03-22T04:59:36.726Z,67.33
2023-03-22T05:00:36.721Z,66.83
2023-03-22T05:01:36.719Z,66.55
2023-03-22T05:02:36.745Z,67.48
2023-03-22T05:03:36.703Z,67.31
2023-03-22T05:04:36.658Z,66.41
2023-03-22T05:05:36.651Z,67.36
2023-03-22T05:06:36.648Z,66.53
2023-03-22T05:07:36.631Z,65.99
2023-03-22T05:08:36.676Z,67.98
2023-03-22T05:09:36.612Z,67.77
2023-03-22T05:10:36.594Z,67.63
2023-03-22T05:11:36.636Z,67.56
2023-03-22T05:12:36.602Z,68.49
2023-03-22T05:13:36.580Z,68.37
2023-03-22T05:14:36.649Z,65.85
2023-03-22T05:15:36.550Z,68.34
2023-03-22T05:16:37.557Z,67.10
2023-03-22T05:17:36.538Z,68.28
2023-03-22T05:18:36.519Z,67.26
2023-03-22T05:19:36.518Z,67.45
2023-03-22T05:20:36.514Z,68.75
2023-03-22T05:21:36.625Z,66.73
2023-03-22T05:22:36.480Z,67.43
2023-03-22T05:23:36.496Z,66.55
2023-03-22T05:24:36.455Z,66.91
2023-03-22T05:25:36.458Z,68.82
2023-03-22T05:26:36.482Z,68.41
2023-03-22T05:27:36.429Z,68.46
2023-03-22T05:28:36.416Z,68.43
2023-03-22T05:29:36.408Z,68.29
2023-03-22T05:30:36.431Z,68.07
2023-03-22T05:31:36.436Z,69.67
2023-03-22T05:32:36.382Z,69.95
2023-03-22T05:33:36.366Z,69.66
2023-03-22T05:34:36.350Z,69.14
2023-03-22T05:35:36.406Z,70.11
2023-03-22T05:36:36.403Z,68.89
2023-03-22T05:37:36.330Z,70.52
2023-03-22T05:38:36.333Z,69.75
2023-03-22T05:39:36.311Z,70.61
2023-03-22T05:40:36.307Z,70.39
2023-03-22T05:41:36.969Z,69.84
2023-03-22T05:42:37.279Z,69.95
2023-03-22T05:43:36.276Z,70.38
2023-03-22T05:44:36.261Z,70.46
2023-03-22T05:45:36.246Z,69.67
2023-03-22T05:46:36.293Z,69.43
2023-03-22T05:47:36.225Z,69.91
2023-03-22T05:48:36.215Z,69.59
2023-03-22T05:49:36.210Z,68.46
2023-03-22T05:50:36.219Z,69.48
2023-03-22T05:51:36.231Z,68.82
2023-03-22T05:52:36.181Z,69.10
2023-03-22T05:53:36.162Z,69.14
2023-03-22T05:54:36.151Z,68.92
2023-03-22T05:55:36.149Z,69.53
2023-03-22T05:56:36.200Z,69.49
2023-03-22T05:57:36.130Z,68.34
2023-03-22T05:58:36.110Z,69.05
2023-03-22T05:59:36.107Z,68.69
2023-03-22T06:00:36.092Z,69.07
2023-03-22T06:01:36.119Z,69.22
2023-03-22T06:02:36.079Z,68.45
2023-03-22T06:03:36.148Z,68.95
2023-03-22T06:04:36.052Z,66.91
2023-03-22T06:05:36.051Z,68.56
2023-03-22T06:06:36.093Z,67.95
2023-03-22T06:07:36.018Z,67.18
2023-03-22T06:08:36.018Z,68.27
2023-03-22T06:09:35.999Z,68.10
2023-03-22T06:10:36.014Z,68.56
2023-03-22T06:11:35.996Z,67.67
2023-03-22T06:12:36.945Z,68.39
2023-03-22T06:13:35.960Z,67.90
2023-03-22T06:14:35.965Z,66.85
2023-03-22T06:15:35.941Z,67.75
2023-03-22T06:16:36.038Z,68.80
2023-03-22T06:17:35.915Z,67.72
2023-03-22T06:18:35.917Z,67.33
2023-03-22T06:19:35.902Z,68.31
2023-03-22T06:20:35.948Z,67.79
2023-03-22T06:21:35.952Z,68.31
2023-03-22T06:22:35.901Z,67.39
2023-03-22T06:23:35.867Z,68.13
2023-03-22T06:24:35.873Z,69.53
2023-03-22T06:25:35.892Z,67.80
2023-03-22T06:26:35.907Z,69.13
2023-03-22T06:27:35.830Z,68.93
2023-03-22T06:28:35.851Z,68.58
2023-03-22T06:29:35.807Z,69.14
2023-03-22T06:30:35.817Z,67.66
2023-03-22T06:31:35.852Z,69.00
2023-03-22T06:32:35.789Z,68.32
2023-03-22T06:33:35.749Z,67.62
2023-03-22T06:34:35.782Z,67.36
2023-03-22T06:35:35.794Z,68.52
2023-03-22T06:36:35.754Z,68.67
2023-03-22T06:37:35.707Z,67.69
2023-03-22T06:38:35.714Z,69.29
2023-03-22T06:39:35.692Z,69.16
2023-03-22T06:40:35.713Z,68.52
2023-03-22T06:41:36.744Z,67.56
2023-03-22T06:42:35.675Z,68.29
2023-03-22T06:43:35.650Z,68.54
2023-03-22T06:44:35.647Z,69.09
2023-03-22T06:45:35.647Z,69.28
2023-03-22T06:46:35.676Z,67.91
2023-03-22T06:47:35.620Z,68.62
2023-03-22T06:48:35.603Z,68.23
2023-03-22T06:49:35.625Z,69.16
2023-03-22T06:50:35.581Z,68.72
2023-03-22T06:51:35.634Z,67.68
2023-03-22T06:52:35.569Z,68.86
2023-03-22T06:53:35.550Z,67.34
2023-03-22T06:54:35.549Z,66.45
2023-03-22T06:55:35.548Z,66.94
2023-03-22T06:56:35.618Z,66.93
2023-03-22T06:57:35.520Z,66.62
2023-03-22T06:58:35.507Z,67.79
2023-03-22T06:59:35.496Z,68.06
2023-03-22T07:00:35.489Z,67.85
2023-03-22T07:01:35.495Z,67.46
2023-03-22T07:02:35.501Z,68.16
2023-03-22T07:03:35.464Z,67.37
2023-03-22T07:04:35.461Z,66.71
2023-03-22T07:05:35.619Z,67.09
2023-03-22T07:06:35.437Z,67.71
2023-03-22T07:07:35.463Z,67.47
2023-03-22T07:08:35.449Z,67.09
2023-03-22T07:09:35.416Z,66.91
2023-03-22T07:10:35.412Z,66.68
2023-03-22T07:11:35.406Z,66.71
2023-03-22T07:12:35.415Z,66.75
2023-03-22T07:13:35.386Z,66.87
2023-03-22T07:14:35.364Z,67.48
2023-03-22T07:15:35.408Z,67.98
2023-03-22T07:16:35.335Z,65.50
2023-03-22T07:17:35.356Z,66.28
2023-03-22T07:18:35.310Z,66.47
2023-03-22T07:19:35.311Z,66.21
2023-03-22T07:20:35.303Z,66.37
2023-03-22T07:21:35.295Z,65.59
2023-03-22T07:22:35.300Z,65.28
2023-03-22T07:23:35.280Z,66.71
2023-03-22T07:24:37.192Z,65.63
2023-03-22T07:25:36.246Z,66.89
2023-03-22T07:26:35.239Z,66.94
2023-03-22T07:27:35.255Z,66.14
2023-03-22T07:28:35.234Z,66.25
2023-03-22T07:29:35.206Z,65.01
2023-03-22T07:30:35.225Z,67.47
2023-03-22T07:31:35.183Z,66.93
2023-03-22T07:32:35.248Z,66.58
2023-03-22T07:33:35.214Z,65.78
2023-03-22T07:34:35.157Z,65.48
2023-03-22T07:35:35.242Z,64.83
2023-03-22T07:36:35.144Z,64.91
2023-03-22T07:37:35.144Z,66.26
2023-03-22T07:38:35.129Z,66.51
2023-03-22T07:39:35.121Z,65.42
2023-03-22T07:40:35.125Z,65.70
2023-03-22T07:41:35.091Z,65.12
2023-03-22T07:42:35.138Z,65.14
2023-03-22T07:43:47.304Z,65.82
2023-03-22T07:44:37.065Z,65.44
2023-03-22T07:45:35.078Z,65.82
2023-03-22T07:46:35.076Z,64.59
2023-03-22T07:47:41.042Z,66.63
2023-03-22T07:48:37.036Z,65.46
2023-03-22T07:49:35.015Z,66.10
2023-03-22T07:50:35.055Z,65.43
2023-03-22T07:51:34.998Z,65.66
2023-03-22T07:52:35.045Z,66.36
2023-03-22T07:53:34.988Z,65.97
2023-03-22T07:54:34.985Z,66.06
2023-03-22T07:55:34.972Z,66.25
2023-03-22T07:56:34.957Z,65.20
2023-03-22T07:57:34.952Z,65.13
2023-03-22T07:58:34.932Z,66.13
2023-03-22T07:59:34.919Z,65.42
2023-03-22T08:00:34.915Z,66.42
2023-03-22T08:01:34.995Z,64.20
2023-03-22T08:02:34.927Z,64.23
2023-03-22T08:03:34.900Z,65.74
2023-03-22T08:04:34.886Z,65.11
2023-03-22T08:05:34.864Z,65.20
2023-03-22T08:06:34.841Z,64.74
2023-03-22T08:07:35.879Z,65.59
2023-03-22T08:08:34.844Z,65.44
2023-03-22T08:09:34.820Z,65.99
2023-03-22T08:10:34.944Z,65.90
2023-03-22T08:11:34.809Z,65.58
2023-03-22T08:12:34.825Z,64.55
2023-03-22T08:13:34.782Z,65.47
2023-03-22T08:14:36.825Z,63.92
2023-03-22T08:15:35.784Z,64.90
2023-03-22T08:16:34.790Z,65.06
2023-03-22T08:17:34.762Z,64.90
2023-03-22T08:18:34.738Z,64.56
2023-03-22T08:19:34.722Z,63.84
2023-03-22T08:20:34.717Z,64.93
2023-03-22T08:21:34.710Z,64.75
2023-03-22T08:22:34.728Z,65.04
2023-03-22T08:23:41.796Z,65.04
2023-03-22T08:24:36.681Z,65.40
2023-03-22T08:25:34.669Z,66.45
2023-03-22T08:26:34.658Z,64.76
2023-03-22T08:27:34.691Z,64.31
2023-03-22T08:28:34.643Z,64.86
2023-03-22T08:29:34.641Z,64.94
2023-03-22T08:30:34.621Z,64.50
2023-03-22T08:31:34.633Z,63.46
2023-03-22T08:32:34.617Z,63.95
2023-03-22T08:33:34.596Z,64.67
2023-03-22T08:34:34.622Z,63.73
2023-03-22T08:35:34.574Z,63.97
2023-03-22T08:36:34.553Z,64.20
2023-03-22T08:37:34.566Z,62.73
2023-03-22T08:38:34.539Z,63.53
2023-03-22T08:39:34.540Z,64.51
2023-03-22T08:40:34.594Z,63.91
2023-03-22T08:41:34.513Z,63.10
2023-03-22T08:42:34.535Z,63.16
2023-03-22T08:43:34.488Z,64.09
2023-03-22T08:44:34.481Z,62.51
2023-03-22T08:45:34.470Z,65.13
2023-03-22T08:46:34.537Z,63.08
2023-03-22T08:47:34.470Z,63.68
2023-03-22T08:48:34.437Z,63.20
2023-03-22T08:49:34.454Z,63.82
2023-03-22T08:50:34.455Z,64.77
2023-03-22T08:51:34.424Z,63.87
2023-03-22T08:52:34.434Z,66.19
2023-03-22T08:53:34.419Z,63.98
2023-03-22T08:54:35.017Z,64.22
2023-03-22T08:55:34.368Z,63.41
2023-03-22T08:56:34.367Z,63.78
2023-03-22T08:57:34.692Z,64.98
2023-03-22T08:58:35.340Z,62.84
2023-03-22T08:59:34.357Z,65.16
2023-03-22T09:00:47.780Z,65.88
2023-03-22T09:01:36.431Z,65.78
2023-03-22T09:02:34.349Z,65.11
2023-03-22T09:03:34.291Z,65.32
2023-03-22T09:04:34.311Z,64.67
2023-03-22T09:05:34.277Z,65.16
2023-03-22T09:06:34.265Z,64.44
2023-03-22T09:07:34.273Z,64.18
2023-03-22T09:08:34.234Z,64.65
2023-03-22T09:09:35.236Z,64.70
2023-03-22T09:10:34.229Z,64.14
2023-03-22T09:11:34.214Z,64.25
2023-03-22T09:12:34.229Z,64.33
2023-03-22T09:13:34.198Z,63.85
2023-03-22T09:14:34.191Z,63.65
2023-03-22T09:15:34.201Z,64.01
2023-03-22T09:16:34.935Z,64.89
2023-03-22T09:17:34.152Z,63.48
2023-03-22T09:18:34.174Z,63.62
2023-03-22T09:19:35.294Z,64.72
2023-03-22T09:20:34.156Z,64.66
2023-03-22T09:21:34.145Z,63.77
2023-03-22T09:22:34.111Z,64.10
2023-03-22T09:23:34.110Z,64.47
2023-03-22T09:24:34.078Z,63.62
2023-03-22T09:25:34.084Z,64.11
2023-03-22T09:26:34.072Z,64.04
2023-03-22T09:27:34.059Z,64.19
2023-03-22T09:28:34.074Z,64.66
2023-03-22T09:29:34.033Z,65.15
2023-03-22T09:30:34.056Z,64.83
2023-03-22T09:31:34.100Z,63.90
2023-03-22T09:32:34.749Z,64.88
2023-03-22T09:33:33.992Z,64.74
2023-03-22T09:34:33.986Z,63.72
2023-03-22T09:35:33.998Z,63.85
2023-03-22T09:36:33.960Z,64.34
2023-03-22T09:37:33.970Z,64.88
2023-03-22T09:38:34.014Z,64.79
2023-03-22T09:39:33.922Z,65.69
2023-03-22T09:40:33.933Z,64.84
2023-03-22T09:41:33.916Z,64.92
2023-03-22T09:42:33.945Z,65.14
2023-03-22T09:43:33.891Z,64.37
2023-03-22T09:44:33.883Z,62.64
2023-03-22T09:45:33.874Z,63.46
2023-03-22T09:46:33.929Z,64.39
2023-03-22T09:47:44.476Z,64.88
2023-03-22T09:48:35.855Z,64.62
2023-03-22T09:49:46.943Z,64.02
2023-03-22T09:50:35.828Z,65.40
2023-03-22T09:51:33.815Z,65.89
2023-03-22T09:52:33.860Z,64.77
2023-03-22T09:53:33.802Z,65.55
2023-03-22T09:54:33.797Z,65.63
2023-03-22T09:55:33.788Z,64.93
2023-03-22T09:56:33.762Z,64.42
2023-03-22T09:57:33.761Z,65.26
2023-03-22T09:58:33.769Z,64.20
2023-03-22T09:59:33.745Z,65.03
2023-03-22T10:00:33.867Z,66.32
2023-03-22T10:01:34.051Z,65.19
2023-03-22T10:02:33.759Z,65.49
2023-03-22T10:03:33.775Z,66.16
2023-03-22T10:04:33.737Z,64.88
2023-03-22T10:05:33.709Z,65.07
2023-03-22T10:06:33.671Z,64.96
2023-03-22T10:07:46.703Z,64.40
2023-03-22T10:08:33.648Z,66.02
2023-03-22T10:09:33.634Z,64.55
2023-03-22T10:10:33.644Z,64.61
2023-03-22T10:11:33.636Z,64.74
2023-03-22T10:12:33.615Z,65.55
2023-03-22T10:13:33.648Z,65.16
2023-03-22T10:14:33.585Z,65.30
2023-03-22T10:15:33.574Z,65.70
2023-03-22T10:16:33.600Z,65.18
2023-03-22T10:17:33.559Z,65.07
2023-03-22T10:18:33.569Z,65.45
2023-03-22T10:19:33.534Z,65.30
2023-03-22T10:20:34.560Z,65.08
2023-03-22T10:21:33.528Z,65.43
2023-03-22T10:22:33.519Z,65.38
2023-03-22T10:23:33.556Z,64.98
2023-03-22T10:24:33.496Z,64.70
2023-03-22T10:25:33.483Z,65.28
2023-03-22T10:26:33.492Z,67.01
2023-03-22T10:27:33.457Z,65.58
2023-03-22T10:28:33.465Z,65.51
2023-03-22T10:29:33.447Z,65.71
2023-03-22T10:30:33.440Z,65.55
2023-03-22T10:31:33.488Z,66.08
2023-03-22T10:32:33.424Z,64.46
2023-03-22T10:33:33.477Z,65.30
2023-03-22T10:34:33.391Z,66.30
2023-03-22T10:35:33.425Z,66.44
2023-03-22T10:36:33.372Z,65.94
2023-03-22T10:37:33.375Z,64.78
2023-03-22T10:38:33.441Z,64.11
2023-03-22T10:39:33.346Z,64.88
2023-03-22T10:40:33.336Z,65.63
2023-03-22T10:41:33.347Z,65.36
2023-03-22T10:42:33.317Z,64.93
2023-03-22T10:43:33.299Z,65.08
2023-03-22T10:44:33.323Z,64.77
2023-03-22T10:45:33.280Z,65.48
2023-03-22T10:46:33.298Z,66.13
2023-03-22T10:47:33.261Z,65.46
2023-03-22T10:48:33.495Z,65.27
2023-03-22T10:49:33.307Z,64.88
2023-03-22T10:50:33.239Z,65.33
2023-03-22T10:51:33.256Z,67.08
2023-03-22T10:52:33.211Z,66.49
2023-03-22T10:53:33.217Z,65.45
2023-03-22T10:54:33.190Z,65.92
2023-03-22T10:55:33.223Z,65.61
2023-03-22T10:56:33.180Z,66.10
2023-03-22T10:57:33.176Z,66.78
2023-03-22T10:58:33.181Z,66.22
2023-03-22T10:59:33.144Z,66.67
2023-03-22T11:00:33.183Z,65.98
2023-03-22T11:01:33.279Z,65.63
2023-03-22T11:02:33.222Z,66.17
2023-03-22T11:03:33.101Z,66.05
2023-03-22T11:04:33.097Z,66.62
2023-03-22T11:05:33.091Z,65.61
2023-03-22T11:06:33.085Z,65.89
2023-03-22T11:07:33.068Z,66.53
2023-03-22T11:08:33.078Z,66.38
2023-03-22T11:09:33.050Z,66.12
2023-03-22T11:10:33.163Z,66.74
2023-03-22T11:11:33.051Z,66.38
2023-03-22T11:12:33.027Z,66.04
2023-03-22T11:13:33.029Z,66.04
2023-03-22T11:14:33.005Z,65.95
2023-03-22T11:15:32.993Z,64.61
2023-03-22T11:16:33.030Z,65.74
2023-03-22T11:17:32.971Z,65.46
2023-03-22T11:18:32.983Z,64.59
2023-03-22T11:19:32.948Z,63.86
2023-03-22T11:20:33.015Z,64.50
2023-03-22T11:21:32.963Z,64.51
2023-03-22T11:22:32.915Z,65.06
2023-03-22T11:23:32.941Z,62.89
2023-03-22T11:24:32.937Z,64.02
2023-03-22T11:25:32.897Z,63.97
2023-03-22T11:26:33.267Z,64.88
2023-03-22T11:27:32.913Z,64.81
2023-03-22T11:28:32.878Z,65.26
2023-03-22T11:29:32.848Z,64.08
2023-03-22T11:30:32.839Z,64.99
2023-03-22T11:31:32.849Z,65.21
2023-03-22T11:32:32.886Z,64.16
2023-03-22T11:33:32.833Z,65.84
2023-03-22T11:34:32.845Z,65.29
2023-03-22T11:35:32.822Z,65.38
2023-03-22T11:36:32.790Z,64.90
2023-03-22T11:37:32.782Z,64.62
2023-03-22T11:38:32.782Z,64.02
2023-03-22T11:39:32.748Z,64.22
2023-03-22T11:40:32.765Z,65.94
2023-03-22T11:41:32.737Z,65.73
2023-03-22T11:42:32.736Z,65.92
2023-03-22T11:43:32.807Z,64.12
2023-03-22T11:44:32.712Z,64.29
2023-03-22T11:45:32.696Z,63.59
2023-03-22T11:46:33.708Z,64.25
2023-03-22T11:47:33.684Z,63.87
2023-03-22T11:48:32.851Z,64.25
2023-03-22T11:49:32.675Z,64.73
2023-03-22T11:50:32.771Z,64.83
2023-03-22T11:51:32.649Z,63.53
2023-03-22T11:52:32.661Z,64.36
2023-03-22T11:53:32.634Z,62.50
2023-03-22T11:54:32.611Z,62.99
2023-03-22T11:55:32.615Z,63.10
2023-03-22T11:56:32.596Z,63.64
2023-03-22T11:57:32.579Z,62.41
2023-03-22T11:58:32.585Z,63.14
2023-03-22T11:59:32.562Z,63.72
2023-03-22T12:00:32.552Z,62.18
2023-03-22T12:01:32.548Z,63.33
2023-03-22T12:02:32.648Z,64.20
2023-03-22T12:03:32.734Z,62.90
2023-03-22T12:04:32.579Z,61.42
2023-03-22T12:05:32.498Z,62.35
2023-03-22T12:06:32.543Z,62.36
2023-03-22T12:07:32.478Z,62.85
2023-03-22T12:08:32.511Z,63.77
2023-03-22T12:09:32.462Z,62.77
2023-03-22T12:10:32.449Z,62.35
2023-03-22T12:11:32.443Z,64.44
2023-03-22T12:12:32.430Z,63.38
2023-03-22T12:13:32.435Z,62.08
2023-03-22T12:14:32.417Z,63.58
2023-03-22T12:15:32.397Z,62.06
2023-03-22T12:16:32.435Z,63.26
2023-03-22T12:17:32.432Z,63.44
2023-03-22T12:18:32.423Z,63.79
2023-03-22T12:19:32.360Z,63.37
2023-03-22T12:20:32.366Z,63.45
2023-03-22T12:21:32.377Z,63.13
2023-03-22T12:22:32.343Z,64.08
2023-03-22T12:23:32.347Z,63.56
2023-03-22T12:24:32.305Z,64.40
2023-03-22T12:25:32.312Z,64.12
2023-03-22T12:26:32.287Z,64.85
2023-03-22T12:27:32.280Z,64.13
2023-03-22T12:28:32.292Z,64.58
2023-03-22T12:29:32.273Z,63.61
2023-03-22T12:30:32.261Z,64.19
2023-03-22T12:31:32.291Z,62.97
2023-03-22T12:32:32.275Z,64.03
2023-03-22T12:33:32.254Z,63.94
2023-03-22T12:34:32.220Z,63.13
2023-03-22T12:35:32.209Z,64.44
2023-03-22T12:36:32.201Z,63.36
2023-03-22T12:37:32.190Z,65.30
2023-03-22T12:38:32.219Z,64.80
2023-03-22T12:39:32.170Z,63.94
2023-03-22T12:40:32.174Z,63.01
2023-03-22T12:41:32.146Z,63.77
2023-03-22T12:42:34.702Z,63.47
2023-03-22T12:43:33.141Z,63.12
2023-03-22T12:44:32.127Z,63.10
2023-03-22T12:45:32.118Z,63.16
2023-03-22T12:46:32.124Z,62.27
2023-03-22T12:47:32.134Z,62.60
2023-03-22T12:48:32.161Z,62.81
2023-03-22T12:49:32.079Z,62.29
2023-03-22T12:50:32.067Z,62.11
2023-03-22T12:51:32.049Z,62.59
2023-03-22T12:52:37.763Z,63.18